sensor_id;sensor_type;location;lat;lon;timestamp;P1;durP1;ratioP1;P2;durP2;ratioP2
1987;SDS011;12775;46.994;15.498;2023-08-17T00:01:47;10.30;;;9.38;;
1987;SDS011;12775;46.994;15.498;2023-08-17T00:04:13;11.62;;;9.30;;
1987;SDS011;12775;46.994;15.498;2023-08-17T00:06:40;10.58;;;9.78;;
1987;SDS011;12775;46.994;15.498;2023-08-17T00:09:07;11.96;;;10.96;;
1987;SDS011;12775;46.994;15.498;2023-08-17T00:11:33;11.70;;;10.52;;
1987;SDS011;12775;46.994;15.498;2023-08-17T00:14:00;12.32;;;11.24;;
1987;SDS011;12775;46.994;15.498;2023-08-17T00:16:27;11.56;;;10.48;;
1987;SDS011;12775;46.994;15.498;2023-08-17T00:18:54;12.16;;;10.94;;
1987;SDS011;12775;46.994;15.498;2023-08-17T00:21:21;11.68;;;9.76;;
1987;SDS011;12775;46.994;15.498;2023-08-17T00:23:48;11.98;;;10.78;;
1987;SDS011;12775;46.994;15.498;2023-08-17T00:26:14;11.40;;;10.28;;
1987;SDS011;12775;46.994;15.498;2023-08-17T00:28:41;12.52;;;11.24;;
1987;SDS011;12775;46.994;15.498;2023-08-17T00:31:07;11.24;;;10.26;;
1987;SDS011;12775;46.994;15.498;2023-08-17T00:33:34;9.90;;;8.98;;
1987;SDS011;12775;46.994;15.498;2023-08-17T00:36:01;11.18;;;10.02;;
1987;SDS011;12775;46.994;15.498;2023-08-17T00:38:27;11.44;;;9.80;;
1987;SDS011;12775;46.994;15.498;2023-08-17T00:40:54;10.78;;;9.70;;
1987;SDS011;12775;46.994;15.498;2023-08-17T00:43:20;12.64;;;9.62;;
1987;SDS011;12775;46.994;15.498;2023-08-17T00:45:47;10.92;;;10.02;;
1987;SDS011;12775;46.994;15.498;2023-08-17T00:48:14;11.22;;;10.06;;
1987;SDS011;12775;46.994;15.498;2023-08-17T00:50:40;10.98;;;9.98;;
1987;SDS011;12775;46.994;15.498;2023-08-17T00:53:07;13.58;;;10.34;;
1987;SDS011;12775;46.994;15.498;2023-08-17T00:55:34;11.46;;;10.40;;
1987;SDS011;12775;46.994;15.498;2023-08-17T00:58:03;11.44;;;10.64;;
1987;SDS011;12775;46.994;15.498;2023-08-17T01:00:30;12.70;;;10.82;;
1987;SDS011;12775;46.994;15.498;2023-08-17T01:02:58;11.82;;;10.70;;
1987;SDS011;12775;46.994;15.498;2023-08-17T01:05:26;11.16;;;10.14;;
1987;SDS011;12775;46.994;15.498;2023-08-17T01:07:53;11.38;;;10.20;;
1987;SDS011;12775;46.994;15.498;2023-08-17T01:10:21;9.64;;;8.84;;
1987;SDS011;12775;46.994;15.498;2023-08-17T01:12:56;11.50;;;10.58;;
1987;SDS011;12775;46.994;15.498;2023-08-17T01:15:24;12.36;;;9.82;;
1987;SDS011;12775;46.994;15.498;2023-08-17T01:17:54;11.08;;;9.32;;
1987;SDS011;12775;46.994;15.498;2023-08-17T01:20:20;10.98;;;9.98;;
1987;SDS011;12775;46.994;15.498;2023-08-17T01:22:48;9.90;;;8.92;;
1987;SDS011;12775;46.994;15.498;2023-08-17T01:25:14;11.60;;;10.18;;
1987;SDS011;12775;46.994;15.498;2023-08-17T01:27:42;10.66;;;9.68;;
1987;SDS011;12775;46.994;15.498;2023-08-17T01:30:08;12.10;;;11.00;;
1987;SDS011;12775;46.994;15.498;2023-08-17T01:32:37;11.86;;;10.72;;
1987;SDS011;12775;46.994;15.498;2023-08-17T01:35:09;11.22;;;10.30;;
1987;SDS011;12775;46.994;15.498;2023-08-17T01:37:34;11.98;;;10.64;;
1987;SDS011;12775;46.994;15.498;2023-08-17T01:40:00;10.86;;;9.78;;
1987;SDS011;12775;46.994;15.498;2023-08-17T01:42:26;9.32;;;8.56;;
1987;SDS011;12775;46.994;15.498;2023-08-17T01:44:53;11.60;;;9.74;;
1987;SDS011;12775;46.994;15.498;2023-08-17T01:47:20;12.78;;;10.56;;
1987;SDS011;12775;46.994;15.498;2023-08-17T01:49:47;12.40;;;11.18;;
1987;SDS011;12775;46.994;15.498;2023-08-17T01:52:13;10.90;;;9.80;;
1987;SDS011;12775;46.994;15.498;2023-08-17T01:54:40;11.02;;;9.96;;
1987;SDS011;12775;46.994;15.498;2023-08-17T01:57:07;11.12;;;10.02;;
1987;SDS011;12775;46.994;15.498;2023-08-17T01:59:34;10.90;;;9.86;;
1987;SDS011;12775;46.994;15.498;2023-08-17T02:02:01;9.34;;;8.64;;
1987;SDS011;12775;46.994;15.498;2023-08-17T02:04:28;11.06;;;10.14;;
1987;SDS011;12775;46.994;15.498;2023-08-17T02:06:55;11.16;;;10.12;;
1987;SDS011;12775;46.994;15.498;2023-08-17T02:09:21;10.70;;;9.56;;
1987;SDS011;12775;46.994;15.498;2023-08-17T02:11:48;12.28;;;9.98;;
1987;SDS011;12775;46.994;15.498;2023-08-17T02:14:14;10.00;;;7.70;;
1987;SDS011;12775;46.994;15.498;2023-08-17T02:16:41;12.02;;;9.52;;
1987;SDS011;12775;46.994;15.498;2023-08-17T02:19:08;10.54;;;9.56;;
1987;SDS011;12775;46.994;15.498;2023-08-17T02:21:34;10.76;;;9.86;;
1987;SDS011;12775;46.994;15.498;2023-08-17T02:24:01;10.92;;;9.96;;
1987;SDS011;12775;46.994;15.498;2023-08-17T02:26:28;14.32;;;10.34;;
1987;SDS011;12775;46.994;15.498;2023-08-17T02:28:54;12.46;;;11.50;;
1987;SDS011;12775;46.994;15.498;2023-08-17T02:31:21;11.82;;;10.44;;
1987;SDS011;12775;46.994;15.498;2023-08-17T02:33:47;12.10;;;11.00;;
1987;SDS011;12775;46.994;15.498;2023-08-17T02:36:14;10.34;;;9.38;;
1987;SDS011;12775;46.994;15.498;2023-08-17T02:38:40;11.90;;;10.80;;
1987;SDS011;12775;46.994;15.498;2023-08-17T02:41:07;13.02;;;11.72;;
1987;SDS011;12775;46.994;15.498;2023-08-17T02:43:34;11.92;;;10.94;;
1987;SDS011;12775;46.994;15.498;2023-08-17T02:46:00;10.52;;;9.54;;
1987;SDS011;12775;46.994;15.498;2023-08-17T02:48:27;11.60;;;10.64;;
1987;SDS011;12775;46.994;15.498;2023-08-17T02:50:53;13.04;;;12.04;;
1987;SDS011;12775;46.994;15.498;2023-08-17T02:53:20;11.90;;;11.00;;
1987;SDS011;12775;46.994;15.498;2023-08-17T02:55:47;11.94;;;11.02;;
1987;SDS011;12775;46.994;15.498;2023-08-17T02:58:13;9.24;;;8.42;;
1987;SDS011;12775;46.994;15.498;2023-08-17T03:00:41;10.90;;;9.88;;
1987;SDS011;12775;46.994;15.498;2023-08-17T03:03:07;10.94;;;10.04;;
1987;SDS011;12775;46.994;15.498;2023-08-17T03:05:35;12.28;;;11.00;;
1987;SDS011;12775;46.994;15.498;2023-08-17T03:08:01;11.02;;;9.76;;
1987;SDS011;12775;46.994;15.498;2023-08-17T03:10:28;11.76;;;10.76;;
1987;SDS011;12775;46.994;15.498;2023-08-17T03:12:55;11.80;;;10.80;;
1987;SDS011;12775;46.994;15.498;2023-08-17T03:15:21;17.22;;;10.02;;
1987;SDS011;12775;46.994;15.498;2023-08-17T03:17:49;14.86;;;12.34;;
1987;SDS011;12775;46.994;15.498;2023-08-17T03:20:15;15.08;;;11.98;;
1987;SDS011;12775;46.994;15.498;2023-08-17T03:22:42;11.52;;;10.42;;
1987;SDS011;12775;46.994;15.498;2023-08-17T03:25:08;11.48;;;10.56;;
1987;SDS011;12775;46.994;15.498;2023-08-17T03:27:35;11.88;;;10.88;;
1987;SDS011;12775;46.994;15.498;2023-08-17T03:30:02;13.80;;;11.90;;
1987;SDS011;12775;46.994;15.498;2023-08-17T03:32:30;11.24;;;10.28;;
1987;SDS011;12775;46.994;15.498;2023-08-17T03:34:56;10.84;;;9.84;;
1987;SDS011;12775;46.994;15.498;2023-08-17T03:37:23;11.34;;;10.42;;
1987;SDS011;12775;46.994;15.498;2023-08-17T03:39:50;12.06;;;10.82;;
1987;SDS011;12775;46.994;15.498;2023-08-17T03:42:16;12.78;;;11.60;;
1987;SDS011;12775;46.994;15.498;2023-08-17T03:44:43;12.92;;;11.72;;
1987;SDS011;12775;46.994;15.498;2023-08-17T03:47:10;12.08;;;10.36;;
1987;SDS011;12775;46.994;15.498;2023-08-17T03:49:37;12.14;;;10.94;;
1987;SDS011;12775;46.994;15.498;2023-08-17T03:52:03;12.36;;;11.02;;
1987;SDS011;12775;46.994;15.498;2023-08-17T03:54:30;10.94;;;9.88;;
1987;SDS011;12775;46.994;15.498;2023-08-17T03:56:57;12.70;;;10.76;;
1987;SDS011;12775;46.994;15.498;2023-08-17T03:59:23;12.40;;;11.20;;
1987;SDS011;12775;46.994;15.498;2023-08-17T04:01:50;10.72;;;9.92;;
1987;SDS011;12775;46.994;15.498;2023-08-17T04:04:17;13.10;;;11.10;;
1987;SDS011;12775;46.994;15.498;2023-08-17T04:06:44;9.88;;;9.08;;
1987;SDS011;12775;46.994;15.498;2023-08-17T04:09:10;12.14;;;11.02;;
1987;SDS011;12775;46.994;15.498;2023-08-17T04:11:38;10.46;;;9.54;;
1987;SDS011;12775;46.994;15.498;2023-08-17T04:14:05;12.08;;;11.08;;
1987;SDS011;12775;46.994;15.498;2023-08-17T04:16:32;15.84;;;11.14;;
1987;SDS011;12775;46.994;15.498;2023-08-17T04:18:58;12.12;;;11.12;;
1987;SDS011;12775;46.994;15.498;2023-08-17T04:21:24;11.32;;;10.28;;
1987;SDS011;12775;46.994;15.498;2023-08-17T04:23:51;11.40;;;10.34;;
1987;SDS011;12775;46.994;15.498;2023-08-17T04:26:17;11.90;;;10.80;;
1987;SDS011;12775;46.994;15.498;2023-08-17T04:28:46;11.86;;;10.82;;
1987;SDS011;12775;46.994;15.498;2023-08-17T04:31:13;11.16;;;10.26;;
1987;SDS011;12775;46.994;15.498;2023-08-17T04:33:40;13.06;;;11.96;;
1987;SDS011;12775;46.994;15.498;2023-08-17T04:36:08;13.04;;;11.84;;
1987;SDS011;12775;46.994;15.498;2023-08-17T04:38:35;10.90;;;9.92;;
1987;SDS011;12775;46.994;15.498;2023-08-17T04:41:03;13.22;;;11.72;;
1987;SDS011;12775;46.994;15.498;2023-08-17T04:43:30;13.78;;;12.74;;
1987;SDS011;12775;46.994;15.498;2023-08-17T04:45:57;12.04;;;10.94;;
1987;SDS011;12775;46.994;15.498;2023-08-17T04:48:25;12.78;;;11.68;;
1987;SDS011;12775;46.994;15.498;2023-08-17T04:50:52;12.00;;;11.00;;
1987;SDS011;12775;46.994;15.498;2023-08-17T04:53:20;12.40;;;11.40;;
1987;SDS011;12775;46.994;15.498;2023-08-17T04:55:47;12.38;;;11.26;;
1987;SDS011;12775;46.994;15.498;2023-08-17T04:58:14;16.70;;;12.88;;
1987;SDS011;12775;46.994;15.498;2023-08-17T05:00:42;12.18;;;11.14;;
1987;SDS011;12775;46.994;15.498;2023-08-17T05:03:09;11.54;;;10.60;;
1987;SDS011;12775;46.994;15.498;2023-08-17T05:05:36;11.64;;;10.50;;
1987;SDS011;12775;46.994;15.498;2023-08-17T05:08:04;12.10;;;11.16;;
1987;SDS011;12775;46.994;15.498;2023-08-17T05:10:31;11.68;;;10.58;;
1987;SDS011;12775;46.994;15.498;2023-08-17T05:12:58;14.40;;;10.78;;
1987;SDS011;12775;46.994;15.498;2023-08-17T05:15:25;13.40;;;12.30;;
1987;SDS011;12775;46.994;15.498;2023-08-17T05:17:51;14.40;;;12.90;;
1987;SDS011;12775;46.994;15.498;2023-08-17T05:20:18;13.96;;;12.56;;
1987;SDS011;12775;46.994;15.498;2023-08-17T05:22:44;15.04;;;13.62;;
1987;SDS011;12775;46.994;15.498;2023-08-17T05:25:11;15.62;;;12.00;;
1987;SDS011;12775;46.994;15.498;2023-08-17T05:27:38;14.16;;;11.46;;
1987;SDS011;12775;46.994;15.498;2023-08-17T05:30:05;15.62;;;14.10;;
1987;SDS011;12775;46.994;15.498;2023-08-17T05:32:33;14.26;;;12.96;;
1987;SDS011;12775;46.994;15.498;2023-08-17T05:34:59;11.82;;;10.92;;
1987;SDS011;12775;46.994;15.498;2023-08-17T05:39:51;11.56;;;10.66;;
1987;SDS011;12775;46.994;15.498;2023-08-17T05:42:18;10.60;;;9.80;;
1987;SDS011;12775;46.994;15.498;2023-08-17T05:44:46;11.14;;;10.14;;
1987;SDS011;12775;46.994;15.498;2023-08-17T05:47:13;10.68;;;9.64;;
1987;SDS011;12775;46.994;15.498;2023-08-17T05:49:40;10.62;;;9.82;;
1987;SDS011;12775;46.994;15.498;2023-08-17T05:52:07;11.52;;;10.56;;
1987;SDS011;12775;46.994;15.498;2023-08-17T05:54:34;13.52;;;12.26;;
1987;SDS011;12775;46.994;15.498;2023-08-17T05:57:01;13.06;;;11.80;;
1987;SDS011;12775;46.994;15.498;2023-08-17T05:59:27;12.00;;;11.10;;
1987;SDS011;12775;46.994;15.498;2023-08-17T06:01:54;13.58;;;12.36;;
1987;SDS011;12775;46.994;15.498;2023-08-17T06:04:21;14.86;;;13.34;;
1987;SDS011;12775;46.994;15.498;2023-08-17T06:06:48;14.62;;;13.38;;
1987;SDS011;12775;46.994;15.498;2023-08-17T06:09:15;13.28;;;11.38;;
1987;SDS011;12775;46.994;15.498;2023-08-17T06:11:42;15.60;;;14.34;;
1987;SDS011;12775;46.994;15.498;2023-08-17T06:14:09;17.38;;;13.16;;
1987;SDS011;12775;46.994;15.498;2023-08-17T06:16:35;13.28;;;12.10;;
1987;SDS011;12775;46.994;15.498;2023-08-17T06:19:02;13.44;;;12.24;;
1987;SDS011;12775;46.994;15.498;2023-08-17T06:21:29;15.16;;;13.86;;
1987;SDS011;12775;46.994;15.498;2023-08-17T06:23:56;14.16;;;12.86;;
1987;SDS011;12775;46.994;15.498;2023-08-17T06:26:23;15.66;;;14.20;;
1987;SDS011;12775;46.994;15.498;2023-08-17T06:28:49;14.16;;;12.78;;
1987;SDS011;12775;46.994;15.498;2023-08-17T06:31:16;17.32;;;15.78;;
1987;SDS011;12775;46.994;15.498;2023-08-17T06:33:42;19.98;;;18.16;;
1987;SDS011;12775;46.994;15.498;2023-08-17T06:36:09;18.52;;;16.22;;
1987;SDS011;12775;46.994;15.498;2023-08-17T06:38:36;17.80;;;15.92;;
1987;SDS011;12775;46.994;15.498;2023-08-17T06:41:02;17.96;;;16.16;;
1987;SDS011;12775;46.994;15.498;2023-08-17T06:43:29;17.32;;;15.72;;
1987;SDS011;12775;46.994;15.498;2023-08-17T06:45:56;17.62;;;15.82;;
1987;SDS011;12775;46.994;15.498;2023-08-17T06:48:22;14.76;;;13.50;;
1987;SDS011;12775;46.994;15.498;2023-08-17T06:50:49;16.36;;;14.92;;
1987;SDS011;12775;46.994;15.498;2023-08-17T06:53:15;15.50;;;14.20;;
1987;SDS011;12775;46.994;15.498;2023-08-17T06:55:42;14.30;;;12.94;;
1987;SDS011;12775;46.994;15.498;2023-08-17T06:58:08;15.42;;;13.96;;
1987;SDS011;12775;46.994;15.498;2023-08-17T07:00:35;14.84;;;13.64;;
1987;SDS011;12775;46.994;15.498;2023-08-17T07:03:02;14.94;;;13.38;;
1987;SDS011;12775;46.994;15.498;2023-08-17T07:05:28;14.58;;;12.54;;
1987;SDS011;12775;46.994;15.498;2023-08-17T07:07:55;13.74;;;12.64;;
1987;SDS011;12775;46.994;15.498;2023-08-17T07:10:22;13.26;;;12.08;;
1987;SDS011;12775;46.994;15.498;2023-08-17T07:12:48;12.54;;;11.46;;
1987;SDS011;12775;46.994;15.498;2023-08-17T07:15:15;12.30;;;11.30;;
1987;SDS011;12775;46.994;15.498;2023-08-17T07:17:42;13.58;;;12.32;;
1987;SDS011;12775;46.994;15.498;2023-08-17T07:20:09;12.50;;;11.44;;
1987;SDS011;12775;46.994;15.498;2023-08-17T07:22:36;12.78;;;11.68;;
1987;SDS011;12775;46.994;15.498;2023-08-17T07:25:03;12.68;;;11.68;;
1987;SDS011;12775;46.994;15.498;2023-08-17T07:27:30;12.16;;;11.10;;
1987;SDS011;12775;46.994;15.498;2023-08-17T07:29:56;12.46;;;11.26;;
1987;SDS011;12775;46.994;15.498;2023-08-17T07:32:23;11.14;;;10.12;;
1987;SDS011;12775;46.994;15.498;2023-08-17T07:34:49;10.92;;;10.02;;
1987;SDS011;12775;46.994;15.498;2023-08-17T07:37:16;12.14;;;11.14;;
1987;SDS011;12775;46.994;15.498;2023-08-17T07:39:43;12.12;;;11.08;;
1987;SDS011;12775;46.994;15.498;2023-08-17T07:42:09;11.82;;;10.62;;
1987;SDS011;12775;46.994;15.498;2023-08-17T07:44:36;11.60;;;10.48;;
1987;SDS011;12775;46.994;15.498;2023-08-17T07:47:03;11.54;;;10.66;;
1987;SDS011;12775;46.994;15.498;2023-08-17T07:49:29;11.46;;;10.48;;
1987;SDS011;12775;46.994;15.498;2023-08-17T07:51:56;10.62;;;9.82;;
1987;SDS011;12775;46.994;15.498;2023-08-17T07:54:22;13.08;;;11.78;;
1987;SDS011;12775;46.994;15.498;2023-08-17T07:56:49;10.24;;;9.54;;
1987;SDS011;12775;46.994;15.498;2023-08-17T07:59:16;10.54;;;9.70;;
1987;SDS011;12775;46.994;15.498;2023-08-17T08:01:42;8.60;;;7.94;;
1987;SDS011;12775;46.994;15.498;2023-08-17T08:04:09;9.22;;;8.30;;
1987;SDS011;12775;46.994;15.498;2023-08-17T08:06:35;9.00;;;8.40;;
1987;SDS011;12775;46.994;15.498;2023-08-17T08:09:03;8.04;;;7.34;;
1987;SDS011;12775;46.994;15.498;2023-08-17T08:11:30;8.46;;;7.78;;
1987;SDS011;12775;46.994;15.498;2023-08-17T08:13:57;8.14;;;7.52;;
1987;SDS011;12775;46.994;15.498;2023-08-17T08:16:23;8.02;;;7.42;;
1987;SDS011;12775;46.994;15.498;2023-08-17T08:18:49;7.40;;;6.90;;
1987;SDS011;12775;46.994;15.498;2023-08-17T08:21:16;7.48;;;6.88;;
1987;SDS011;12775;46.994;15.498;2023-08-17T08:23:43;8.64;;;7.82;;
1987;SDS011;12775;46.994;15.498;2023-08-17T08:26:10;8.36;;;7.68;;
1987;SDS011;12775;46.994;15.498;2023-08-17T08:28:37;8.80;;;8.06;;
1987;SDS011;12775;46.994;15.498;2023-08-17T08:31:03;8.70;;;8.10;;
1987;SDS011;12775;46.994;15.498;2023-08-17T08:33:30;8.12;;;7.52;;
1987;SDS011;12775;46.994;15.498;2023-08-17T08:35:56;8.84;;;8.24;;
1987;SDS011;12775;46.994;15.498;2023-08-17T08:38:23;8.78;;;8.18;;
1987;SDS011;12775;46.994;15.498;2023-08-17T08:40:50;9.96;;;8.90;;
1987;SDS011;12775;46.994;15.498;2023-08-17T08:43:16;9.20;;;8.42;;
1987;SDS011;12775;46.994;15.498;2023-08-17T08:45:43;8.62;;;8.02;;
1987;SDS011;12775;46.994;15.498;2023-08-17T08:48:11;8.16;;;7.52;;
1987;SDS011;12775;46.994;15.498;2023-08-17T08:50:39;8.28;;;7.68;;
1987;SDS011;12775;46.994;15.498;2023-08-17T08:53:04;9.26;;;8.46;;
1987;SDS011;12775;46.994;15.498;2023-08-17T08:55:34;8.26;;;7.64;;
1987;SDS011;12775;46.994;15.498;2023-08-17T08:57:58;8.10;;;7.32;;
1987;SDS011;12775;46.994;15.498;2023-08-17T09:00:25;8.14;;;7.54;;
1987;SDS011;12775;46.994;15.498;2023-08-17T09:02:52;9.20;;;8.40;;
1987;SDS011;12775;46.994;15.498;2023-08-17T09:05:18;8.48;;;7.94;;
1987;SDS011;12775;46.994;15.498;2023-08-17T09:07:46;9.12;;;8.40;;
1987;SDS011;12775;46.994;15.498;2023-08-17T09:10:12;8.32;;;7.72;;
1987;SDS011;12775;46.994;15.498;2023-08-17T09:12:39;8.92;;;8.22;;
1987;SDS011;12775;46.994;15.498;2023-08-17T09:15:06;9.60;;;8.90;;
1987;SDS011;12775;46.994;15.498;2023-08-17T09:17:32;8.34;;;7.74;;
1987;SDS011;12775;46.994;15.498;2023-08-17T09:20:00;8.04;;;7.50;;
1987;SDS011;12775;46.994;15.498;2023-08-17T09:25:02;7.86;;;7.26;;
1987;SDS011;12775;46.994;15.498;2023-08-17T09:27:30;8.00;;;7.46;;
1987;SDS011;12775;46.994;15.498;2023-08-17T09:30:03;8.92;;;8.18;;
1987;SDS011;12775;46.994;15.498;2023-08-17T09:32:30;8.78;;;8.10;;
1987;SDS011;12775;46.994;15.498;2023-08-17T09:34:57;9.40;;;8.60;;
1987;SDS011;12775;46.994;15.498;2023-08-17T09:37:23;8.14;;;7.40;;
1987;SDS011;12775;46.994;15.498;2023-08-17T09:39:50;9.06;;;7.68;;
1987;SDS011;12775;46.994;15.498;2023-08-17T09:42:16;8.26;;;7.50;;
1987;SDS011;12775;46.994;15.498;2023-08-17T09:44:43;7.92;;;7.26;;
1987;SDS011;12775;46.994;15.498;2023-08-17T09:47:10;8.32;;;7.68;;
1987;SDS011;12775;46.994;15.498;2023-08-17T09:49:36;8.00;;;7.20;;
1987;SDS011;12775;46.994;15.498;2023-08-17T09:52:04;8.46;;;7.88;;
1987;SDS011;12775;46.994;15.498;2023-08-17T09:54:31;9.28;;;8.58;;
1987;SDS011;12775;46.994;15.498;2023-08-17T09:56:58;7.80;;;7.30;;
1987;SDS011;12775;46.994;15.498;2023-08-17T09:59:24;8.92;;;8.22;;
1987;SDS011;12775;46.994;15.498;2023-08-17T10:01:50;8.62;;;7.96;;
1987;SDS011;12775;46.994;15.498;2023-08-17T10:04:19;7.76;;;6.96;;
1987;SDS011;12775;46.994;15.498;2023-08-17T10:06:43;8.44;;;7.78;;
1987;SDS011;12775;46.994;15.498;2023-08-17T10:09:10;8.30;;;7.60;;
1987;SDS011;12775;46.994;15.498;2023-08-17T10:11:37;7.78;;;7.18;;
1987;SDS011;12775;46.994;15.498;2023-08-17T10:14:05;8.38;;;7.56;;
1987;SDS011;12775;46.994;15.498;2023-08-17T10:16:33;8.56;;;7.98;;
1987;SDS011;12775;46.994;15.498;2023-08-17T10:19:05;8.78;;;8.12;;
1987;SDS011;12775;46.994;15.498;2023-08-17T10:21:36;7.56;;;7.02;;
1987;SDS011;12775;46.994;15.498;2023-08-17T10:24:00;8.80;;;8.20;;
1987;SDS011;12775;46.994;15.498;2023-08-17T10:26:27;8.14;;;7.40;;
1987;SDS011;12775;46.994;15.498;2023-08-17T10:28:54;8.30;;;7.30;;
1987;SDS011;12775;46.994;15.498;2023-08-17T10:31:21;7.76;;;7.26;;
1987;SDS011;12775;46.994;15.498;2023-08-17T10:33:47;8.08;;;7.48;;
1987;SDS011;12775;46.994;15.498;2023-08-17T10:36:15;8.42;;;7.70;;
1987;SDS011;12775;46.994;15.498;2023-08-17T10:38:41;8.32;;;7.72;;
1987;SDS011;12775;46.994;15.498;2023-08-17T10:41:11;8.60;;;7.98;;
1987;SDS011;12775;46.994;15.498;2023-08-17T10:43:58;8.02;;;7.32;;
1987;SDS011;12775;46.994;15.498;2023-08-17T10:49:03;9.38;;;7.16;;
1987;SDS011;12775;46.994;15.498;2023-08-17T10:51:30;7.64;;;7.04;;
1987;SDS011;12775;46.994;15.498;2023-08-17T10:53:58;7.54;;;7.04;;
1987;SDS011;12775;46.994;15.498;2023-08-17T10:56:24;8.56;;;7.94;;
1987;SDS011;12775;46.994;15.498;2023-08-17T10:58:51;7.70;;;7.02;;
1987;SDS011;12775;46.994;15.498;2023-08-17T11:01:30;9.38;;;8.48;;
1987;SDS011;12775;46.994;15.498;2023-08-17T11:03:43;8.06;;;7.44;;
1987;SDS011;12775;46.994;15.498;2023-08-17T11:06:15;8.68;;;8.06;;
1987;SDS011;12775;46.994;15.498;2023-08-17T11:11:19;8.38;;;7.68;;
1987;SDS011;12775;46.994;15.498;2023-08-17T11:13:44;9.32;;;8.52;;
1987;SDS011;12775;46.994;15.498;2023-08-17T11:16:11;8.26;;;7.68;;
1987;SDS011;12775;46.994;15.498;2023-08-17T11:18:37;7.62;;;7.08;;
1987;SDS011;12775;46.994;15.498;2023-08-17T11:21:04;8.20;;;7.60;;
1987;SDS011;12775;46.994;15.498;2023-08-17T11:23:31;9.02;;;8.40;;
1987;SDS011;12775;46.994;15.498;2023-08-17T11:25:58;9.16;;;8.36;;
1987;SDS011;12775;46.994;15.498;2023-08-17T11:28:25;8.94;;;8.22;;
1987;SDS011;12775;46.994;15.498;2023-08-17T11:30:57;8.94;;;8.12;;
1987;SDS011;12775;46.994;15.498;2023-08-17T11:33:25;8.44;;;7.74;;
1987;SDS011;12775;46.994;15.498;2023-08-17T11:35:54;8.10;;;7.42;;
1987;SDS011;12775;46.994;15.498;2023-08-17T11:38:21;7.54;;;7.04;;
1987;SDS011;12775;46.994;15.498;2023-08-17T11:40:48;8.00;;;7.30;;
1987;SDS011;12775;46.994;15.498;2023-08-17T11:43:15;8.82;;;7.20;;
1987;SDS011;12775;46.994;15.498;2023-08-17T11:45:42;7.18;;;6.76;;
1987;SDS011;12775;46.994;15.498;2023-08-17T11:48:08;9.92;;;7.86;;
1987;SDS011;12775;46.994;15.498;2023-08-17T11:50:35;7.04;;;6.34;;
1987;SDS011;12775;46.994;15.498;2023-08-17T11:53:02;7.14;;;6.66;;
1987;SDS011;12775;46.994;15.498;2023-08-17T11:55:29;7.90;;;7.30;;
1987;SDS011;12775;46.994;15.498;2023-08-17T11:57:56;7.34;;;6.80;;
1987;SDS011;12775;46.994;15.498;2023-08-17T12:00:22;7.50;;;7.00;;
1987;SDS011;12775;46.994;15.498;2023-08-17T12:02:49;6.66;;;6.16;;
1987;SDS011;12775;46.994;15.498;2023-08-17T12:05:19;8.50;;;7.80;;
1987;SDS011;12775;46.994;15.498;2023-08-17T12:07:45;7.84;;;7.24;;
1987;SDS011;12775;46.994;15.498;2023-08-17T12:10:12;7.90;;;7.20;;
1987;SDS011;12775;46.994;15.498;2023-08-17T12:12:38;8.18;;;7.68;;
1987;SDS011;12775;46.994;15.498;2023-08-17T12:15:05;7.30;;;6.62;;
1987;SDS011;12775;46.994;15.498;2023-08-17T12:17:32;7.54;;;7.02;;
1987;SDS011;12775;46.994;15.498;2023-08-17T12:19:59;8.00;;;7.30;;
1987;SDS011;12775;46.994;15.498;2023-08-17T12:22:25;7.20;;;6.38;;
1987;SDS011;12775;46.994;15.498;2023-08-17T12:24:52;7.40;;;6.78;;
1987;SDS011;12775;46.994;15.498;2023-08-17T12:27:18;9.48;;;7.74;;
1987;SDS011;12775;46.994;15.498;2023-08-17T12:29:47;6.58;;;6.04;;
1987;SDS011;12775;46.994;15.498;2023-08-17T12:32:14;10.78;;;8.16;;
1987;SDS011;12775;46.994;15.498;2023-08-17T12:34:40;7.16;;;6.66;;
1987;SDS011;12775;46.994;15.498;2023-08-17T12:37:08;6.78;;;6.28;;
1987;SDS011;12775;46.994;15.498;2023-08-17T12:39:34;7.26;;;6.58;;
1987;SDS011;12775;46.994;15.498;2023-08-17T12:42:01;6.14;;;5.70;;
1987;SDS011;12775;46.994;15.498;2023-08-17T12:44:28;6.60;;;6.06;;
1987;SDS011;12775;46.994;15.498;2023-08-17T12:46:54;6.34;;;5.74;;
1987;SDS011;12775;46.994;15.498;2023-08-17T12:49:23;6.20;;;5.80;;
1987;SDS011;12775;46.994;15.498;2023-08-17T12:51:49;6.54;;;6.04;;
1987;SDS011;12775;46.994;15.498;2023-08-17T12:54:16;5.48;;;5.18;;
1987;SDS011;12775;46.994;15.498;2023-08-17T12:56:42;6.04;;;5.50;;
1987;SDS011;12775;46.994;15.498;2023-08-17T12:59:09;6.72;;;6.22;;
1987;SDS011;12775;46.994;15.498;2023-08-17T13:01:35;7.00;;;5.58;;
1987;SDS011;12775;46.994;15.498;2023-08-17T13:04:02;5.68;;;5.28;;
1987;SDS011;12775;46.994;15.498;2023-08-17T13:06:29;6.62;;;6.02;;
1987;SDS011;12775;46.994;15.498;2023-08-17T13:08:56;6.40;;;5.72;;
1987;SDS011;12775;46.994;15.498;2023-08-17T13:11:23;6.24;;;5.84;;
1987;SDS011;12775;46.994;15.498;2023-08-17T13:13:49;6.12;;;5.62;;
1987;SDS011;12775;46.994;15.498;2023-08-17T13:16:16;6.26;;;5.68;;
1987;SDS011;12775;46.994;15.498;2023-08-17T13:18:42;5.74;;;5.34;;
1987;SDS011;12775;46.994;15.498;2023-08-17T13:21:09;6.10;;;5.66;;
1987;SDS011;12775;46.994;15.498;2023-08-17T13:23:36;6.22;;;5.72;;
1987;SDS011;12775;46.994;15.498;2023-08-17T13:26:02;5.90;;;5.44;;
1987;SDS011;12775;46.994;15.498;2023-08-17T13:28:29;6.24;;;5.70;;
1987;SDS011;12775;46.994;15.498;2023-08-17T13:30:56;6.08;;;5.58;;
1987;SDS011;12775;46.994;15.498;2023-08-17T13:33:23;5.92;;;5.44;;
1987;SDS011;12775;46.994;15.498;2023-08-17T13:35:49;5.68;;;5.28;;
1987;SDS011;12775;46.994;15.498;2023-08-17T13:38:16;5.72;;;5.30;;
1987;SDS011;12775;46.994;15.498;2023-08-17T13:40:43;6.82;;;6.26;;
1987;SDS011;12775;46.994;15.498;2023-08-17T13:43:10;5.98;;;5.48;;
1987;SDS011;12775;46.994;15.498;2023-08-17T13:45:39;5.88;;;5.46;;
1987;SDS011;12775;46.994;15.498;2023-08-17T13:48:06;5.98;;;5.44;;
1987;SDS011;12775;46.994;15.498;2023-08-17T13:50:32;5.50;;;5.20;;
1987;SDS011;12775;46.994;15.498;2023-08-17T13:52:58;7.80;;;5.48;;
1987;SDS011;12775;46.994;15.498;2023-08-17T13:55:25;5.46;;;5.12;;
1987;SDS011;12775;46.994;15.498;2023-08-17T13:57:52;5.88;;;5.48;;
1987;SDS011;12775;46.994;15.498;2023-08-17T14:00:18;6.80;;;6.30;;
1987;SDS011;12775;46.994;15.498;2023-08-17T14:02:45;5.54;;;5.14;;
1987;SDS011;12775;46.994;15.498;2023-08-17T14:05:11;6.50;;;5.74;;
1987;SDS011;12775;46.994;15.498;2023-08-17T14:07:38;6.74;;;6.14;;
1987;SDS011;12775;46.994;15.498;2023-08-17T14:10:05;6.94;;;5.88;;
1987;SDS011;12775;46.994;15.498;2023-08-17T14:12:31;6.28;;;5.62;;
1987;SDS011;12775;46.994;15.498;2023-08-17T14:14:58;5.60;;;5.28;;
1987;SDS011;12775;46.994;15.498;2023-08-17T14:17:25;5.94;;;5.54;;
1987;SDS011;12775;46.994;15.498;2023-08-17T14:19:52;5.38;;;4.98;;
1987;SDS011;12775;46.994;15.498;2023-08-17T14:22:19;6.02;;;5.52;;
1987;SDS011;12775;46.994;15.498;2023-08-17T14:24:46;5.44;;;5.02;;
1987;SDS011;12775;46.994;15.498;2023-08-17T14:27:13;6.56;;;6.00;;
1987;SDS011;12775;46.994;15.498;2023-08-17T14:29:40;6.10;;;5.60;;
1987;SDS011;12775;46.994;15.498;2023-08-17T14:32:07;6.18;;;5.68;;
1987;SDS011;12775;46.994;15.498;2023-08-17T14:34:33;9.82;;;5.68;;
1987;SDS011;12775;46.994;15.498;2023-08-17T14:37:00;7.14;;;5.44;;
1987;SDS011;12775;46.994;15.498;2023-08-17T14:39:26;5.70;;;5.30;;
1987;SDS011;12775;46.994;15.498;2023-08-17T14:41:53;5.60;;;5.10;;
1987;SDS011;12775;46.994;15.498;2023-08-17T14:44:20;6.78;;;4.94;;